KRHI/RHI METAR and TAF weather

Enter ICAO airport designator
Station Type Date Time Source
KRHI METAR 2019/06/19 06:53 UTC NOAA

KRHI 190653Z AUTO 01003KT 10SM CLR 12/09 A2991 RMK AO2 SLP127 T01220094


Station Type Date Time Source
KRHI Decoded METAR 2019/06/19 06:53 UTC NOAA

RHINELANDER-ONEIDA CO AIRPORT , WI, United States (KRHI) 45-38N 89-29W 485M
Jun 19, 2019 - 02:53 AM EDT / 2019.06.19 0653 UTC
Wind: from the N (010 degrees) at 3 MPH (3 KT):0
Visibility: 10 mile(s):0
Sky conditions: clear
Temperature: 54.0 F (12.2 C)
Dew Point: 48.9 F (9.4 C)
Relative Humidity: 82%
Pressure (altimeter): 29.91 in. Hg (1012 hPa)
ob: KRHI 190653Z AUTO 01003KT 10SM CLR 12/09 A2991 RMK AO2 SLP127 T01220094
cycle: 7

Station Type Date Time Source
KRHI TAF 2019/06/19 06:22 UTC NOAA

TAF KRHI 190520Z 1906/2006 36005KT P6SM SCT025 BKN050
FM190700 VRB03KT P6SM SCT007 BKN035
TEMPO 1908/1912 3SM BR BKN017
FM191200 VRB03KT P6SM BKN015 OVC040
FM191500 06005KT P6SM SCT015 BKN035

Example: see airport list